Time;durP1;ratioP1;P1;durP2;ratioP2;P2;SDS_P1;SDS_P2;PMS_P1;PMS_P2;Temp;Humidity;BMP_temperature;BMP_pressure;BME280_temperature;BME280_humidity;BME280_pressure;Samples;Min_cycle;Max_cycle;Signal;HPM_P1;HPM_P2
2024/02/17 00:02:16;;;;;;;1999.90;999.90;;;10.30;99.90;;;;;;5099163;28;20036;-82
2024/02/17 00:04:42;;;;;;;1999.90;999.90;;;10.40;99.90;;;;;;5093597;28;20389;-83
2024/02/17 00:07:08;;;;;;;1999.90;999.90;;;10.40;99.90;;;;;;5076822;28;20032;-83
2024/02/17 00:09:34;;;;;;;1999.90;999.90;;;10.40;99.90;;;;;;5086207;28;20091;-82
2024/02/17 00:12:00;;;;;;;1999.90;999.90;;;10.40;99.90;;;;;;5086272;28;20024;-83
2024/02/17 00:14:25;;;;;;;1999.90;999.90;;;10.40;99.90;;;;;;5115048;28;20028;-83
2024/02/17 00:16:54;;;;;;;1999.90;999.90;;;10.50;99.90;;;;;;5117270;28;20105;-83
2024/02/17 00:19:20;;;;;;;1999.90;999.90;;;10.60;99.90;;;;;;5096901;28;20019;-82
2024/02/17 00:21:46;;;;;;;1999.90;999.90;;;10.60;99.90;;;;;;5114897;28;20026;-82
2024/02/17 00:24:11;;;;;;;1999.90;999.90;;;10.60;99.90;;;;;;5100717;28;20012;-84
2024/02/17 00:26:39;;;;;;;1999.90;999.90;;;10.70;99.90;;;;;;5093307;28;20055;-83
2024/02/17 00:29:05;;;;;;;1999.90;999.90;;;10.70;99.90;;;;;;5096571;28;20401;-83
2024/02/17 00:31:31;;;;;;;1999.90;999.90;;;10.70;99.90;;;;;;5120275;28;20016;-83
2024/02/17 00:33:57;;;;;;;1999.90;999.90;;;10.70;99.90;;;;;;5115042;28;20110;-83
2024/02/17 00:36:22;;;;;;;1999.90;999.90;;;10.70;99.90;;;;;;5096608;28;20123;-82
2024/02/17 00:38:48;;;;;;;1999.90;999.90;;;10.70;99.90;;;;;;5115863;28;20428;-82
2024/02/17 00:41:13;;;;;;;1999.90;999.90;;;10.70;99.90;;;;;;5110524;28;20040;-83
2024/02/17 00:43:39;;;;;;;1999.90;999.90;;;10.70;99.90;;;;;;5096396;28;20023;-83
2024/02/17 00:46:05;;;;;;;1999.90;999.90;;;10.70;99.90;;;;;;5096331;28;20020;-83
2024/02/17 00:48:32;;;;;;;1999.90;999.90;;;10.70;99.90;;;;;;5121609;28;20031;-82
2024/02/17 00:50:58;;;;;;;1999.90;999.90;;;10.70;99.90;;;;;;5096241;28;20024;-83
2024/02/17 00:53:23;;;;;;;1999.90;999.90;;;10.70;99.90;;;;;;5096207;28;20490;-82
2024/02/17 00:55:49;;;;;;;1999.90;999.90;;;10.70;99.90;;;;;;5116090;28;20024;-83
2024/02/17 00:58:15;;;;;;;1999.90;999.90;;;10.60;99.90;;;;;;5095982;28;20024;-83
2024/02/17 01:00:40;;;;;;;1999.90;999.90;;;10.60;99.90;;;;;;5098581;28;20024;-83
2024/02/17 01:03:06;;;;;;;1999.90;999.90;;;10.60;99.90;;;;;;5096682;28;20114;-83
2024/02/17 01:05:32;;;;;;;1999.90;999.90;;;10.50;99.90;;;;;;5095547;28;20055;-83
2024/02/17 01:07:58;;;;;;;1999.90;999.90;;;10.50;99.90;;;;;;5102993;28;20018;-82
2024/02/17 01:10:24;;;;;;;1999.90;999.90;;;10.60;99.90;;;;;;5095124;28;20015;-82
2024/02/17 01:12:49;;;;;;;1999.90;999.90;;;10.60;99.90;;;;;;5083167;28;20028;-82
2024/02/17 01:15:15;;;;;;;1999.90;999.90;;;10.50;99.90;;;;;;5082167;28;20019;-82
2024/02/17 01:17:41;;;;;;;1999.90;999.90;;;10.50;99.90;;;;;;5077305;28;20472;-82
2024/02/17 01:20:07;;;;;;;1999.90;999.90;;;10.50;99.90;;;;;;5075498;28;20081;-83
2024/02/17 01:22:33;;;;;;;1999.90;999.90;;;10.40;99.90;;;;;;5083028;28;20031;-82
2024/02/17 01:24:58;;;;;;;1999.90;999.90;;;10.50;99.90;;;;;;5112858;28;20016;-83
2024/02/17 01:27:24;;;;;;;1999.90;999.90;;;10.50;99.90;;;;;;5095514;28;20066;-82
2024/02/17 01:29:49;;;;;;;1999.90;999.90;;;10.50;99.90;;;;;;5097608;28;20081;-83
2024/02/17 01:32:15;;;;;;;1999.90;999.90;;;10.60;99.90;;;;;;5099187;28;20028;-82
2024/02/17 01:34:41;;;;;;;1999.90;999.90;;;10.60;99.90;;;;;;5095368;28;20031;-83
2024/02/17 01:37:06;;;;;;;1999.90;999.90;;;10.60;99.90;;;;;;5096180;28;20061;-82
2024/02/17 01:39:32;;;;;;;1999.90;999.90;;;10.60;99.90;;;;;;5083798;28;20036;-82
2024/02/17 01:41:58;;;;;;;1999.90;999.90;;;10.60;99.90;;;;;;5093613;28;20059;-83
2024/02/17 01:44:23;;;;;;;1999.90;999.90;;;10.60;99.90;;;;;;5075298;28;20024;-84
2024/02/17 01:46:52;;;;;;;1999.90;999.90;;;10.60;99.90;;;;;;5076409;28;20024;-83
2024/02/17 01:49:18;;;;;;;1999.90;999.90;;;10.60;99.90;;;;;;5075169;28;20511;-82
2024/02/17 01:51:46;;;;;;;1999.90;999.90;;;10.60;99.90;;;;;;5097998;28;20011;-83
2024/02/17 01:54:12;;;;;;;1999.90;999.90;;;10.60;99.90;;;;;;5079864;28;20036;-82
2024/02/17 01:56:39;;;;;;;1999.90;999.90;;;10.70;99.90;;;;;;5075332;28;20020;-82
2024/02/17 01:59:05;;;;;;;1999.90;999.90;;;10.60;99.90;;;;;;5077562;28;20081;-83
2024/02/17 02:01:32;;;;;;;1999.90;999.90;;;10.60;99.90;;;;;;5096266;28;20032;-83
2024/02/17 02:03:58;;;;;;;1999.90;999.90;;;10.60;99.90;;;;;;5093152;28;20103;-82
2024/02/17 02:06:24;;;;;;;1999.90;999.90;;;10.60;99.90;;;;;;5102273;28;20055;-82
2024/02/17 02:08:51;;;;;;;1999.90;999.90;;;10.50;99.90;;;;;;5075427;28;20032;-82
2024/02/17 02:11:18;;;;;;;1999.90;999.90;;;10.60;99.90;;;;;;5093491;28;20020;-83
2024/02/17 02:13:45;;;;;;;1999.90;999.90;;;10.60;99.90;;;;;;5081380;28;20024;-84
2024/02/17 02:16:10;;;;;;;1999.90;999.90;;;10.60;99.90;;;;;;5095174;28;20028;-82
2024/02/17 02:18:36;;;;;;;1999.90;999.90;;;10.60;99.90;;;;;;5075263;28;20032;-82
2024/02/17 02:21:04;;;;;;;1999.90;999.90;;;10.70;99.90;;;;;;5100665;28;20012;-83
2024/02/17 02:23:31;;;;;;;1999.90;999.90;;;10.70;99.90;;;;;;5110760;28;20099;-83
2024/02/17 02:25:56;;;;;;;1999.90;999.90;;;10.70;99.90;;;;;;5096557;28;20032;-83
2024/02/17 02:28:23;;;;;;;1999.90;999.90;;;10.70;99.90;;;;;;5092796;28;20035;-83
2024/02/17 02:30:52;;;;;;;1999.90;999.90;;;10.60;99.90;;;;;;5108113;28;20135;-83
2024/02/17 02:33:18;;;;;;;1999.90;999.90;;;10.60;99.90;;;;;;5117076;28;20102;-82
2024/02/17 02:35:45;;;;;;;1999.90;999.90;;;10.60;99.90;;;;;;5098862;28;20027;-83
2024/02/17 02:38:13;;;;;;;1999.90;999.90;;;10.60;99.90;;;;;;5100229;28;20036;-82
2024/02/17 02:40:39;;;;;;;1999.90;999.90;;;10.60;99.90;;;;;;5117098;28;20083;-83
2024/02/17 02:43:05;;;;;;;1999.90;999.90;;;10.60;99.90;;;;;;5098645;28;20444;-82
2024/02/17 02:45:33;;;;;;;1999.90;999.90;;;10.60;99.90;;;;;;5102614;28;20402;-82
2024/02/17 02:47:59;;;;;;;1999.90;999.90;;;10.50;99.90;;;;;;5098460;28;20016;-83
2024/02/17 02:50:24;;;;;;;1999.90;999.90;;;10.50;99.90;;;;;;5116792;28;20066;-83
2024/02/17 02:52:50;;;;;;;1999.90;999.90;;;10.50;99.90;;;;;;5107422;28;20012;-82
2024/02/17 02:55:16;;;;;;;1999.90;999.90;;;10.40;99.90;;;;;;5106224;28;20035;-82
2024/02/17 02:57:45;;;;;;;1999.90;999.90;;;10.40;99.90;;;;;;5115578;28;20123;-82
2024/02/17 03:00:10;;;;;;;1999.90;999.90;;;10.30;99.90;;;;;;5101997;28;20020;-83
2024/02/17 03:02:36;;;;;;;1999.90;999.90;;;10.20;99.90;;;;;;5118560;28;20477;-83
2024/02/17 03:05:02;;;;;;;1999.90;999.90;;;10.10;99.90;;;;;;5098084;28;20040;-83
2024/02/17 03:07:31;;;;;;;1999.90;999.90;;;10.10;99.90;;;;;;5097316;28;20027;-83
2024/02/17 03:09:57;;;;;;;1999.90;999.90;;;10.10;99.90;;;;;;5099162;28;20016;-82
2024/02/17 03:12:22;;;;;;;1999.90;999.90;;;10.10;99.90;;;;;;5078155;28;20047;-82
2024/02/17 03:14:48;;;;;;;1999.90;999.90;;;10.20;99.90;;;;;;5079376;28;20032;-82
2024/02/17 03:17:14;;;;;;;1999.90;999.90;;;10.20;99.90;;;;;;5096147;28;20031;-82
2024/02/17 03:19:40;;;;;;;1999.90;999.90;;;10.10;99.90;;;;;;5096113;28;20056;-82
2024/02/17 03:22:06;;;;;;;1999.90;999.90;;;10.00;99.90;;;;;;5099216;28;20024;-83
2024/02/17 03:24:31;;;;;;;1999.90;999.90;;;9.90;99.90;;;;;;5096744;28;20035;-82
2024/02/17 03:26:57;;;;;;;1999.90;999.90;;;9.80;99.90;;;;;;5096269;28;20059;-83
2024/02/17 03:29:23;;;;;;;1999.90;999.90;;;9.70;99.90;;;;;;5118948;28;20027;-82
2024/02/17 03:31:50;;;;;;;1999.90;999.90;;;9.50;99.90;;;;;;5115638;28;20042;-82
2024/02/17 03:34:15;;;;;;;1999.90;999.90;;;9.50;99.90;;;;;;5096449;28;20028;-82
2024/02/17 03:36:41;;;;;;;1999.90;999.90;;;9.50;99.90;;;;;;5100443;28;20046;-82
2024/02/17 03:39:09;;;;;;;1999.90;999.90;;;9.60;99.90;;;;;;5095618;28;20106;-83
2024/02/17 03:41:38;;;;;;;1999.90;999.90;;;9.60;99.90;;;;;;5094384;28;20540;-83
2024/02/17 03:44:04;;;;;;;1999.90;999.90;;;9.60;99.90;;;;;;5097606;28;20020;-83
2024/02/17 03:46:32;;;;;;;1999.90;999.90;;;9.70;99.90;;;;;;5096089;28;20063;-82
2024/02/17 03:48:58;;;;;;;1999.90;999.90;;;9.70;99.90;;;;;;5094128;28;20020;-82
2024/02/17 03:51:24;;;;;;;1999.90;999.90;;;9.80;99.90;;;;;;5098229;28;20023;-83
2024/02/17 03:53:50;;;;;;;1999.90;999.90;;;9.80;99.90;;;;;;5097768;28;20036;-82
2024/02/17 03:56:16;;;;;;;1999.90;999.90;;;9.80;99.90;;;;;;5093792;28;20367;-83
2024/02/17 03:58:41;;;;;;;1999.90;999.90;;;9.80;99.90;;;;;;5095604;28;20035;-82
2024/02/17 04:01:08;;;;;;;1999.90;999.90;;;9.70;99.90;;;;;;5093177;28;20502;-82
2024/02/17 04:03:33;;;;;;;1999.90;999.90;;;9.70;99.90;;;;;;5095210;28;20387;-82
2024/02/17 04:05:59;;;;;;;1999.90;999.90;;;9.60;99.90;;;;;;5095175;28;20048;-83
2024/02/17 04:08:25;;;;;;;1999.90;999.90;;;9.60;99.90;;;;;;5093546;28;20024;-82
2024/02/17 04:10:51;;;;;;;1999.90;999.90;;;9.60;99.90;;;;;;5093689;28;20058;-82
2024/02/17 04:13:17;;;;;;;1999.90;999.90;;;9.70;99.90;;;;;;5096627;28;20024;-82
2024/02/17 04:15:43;;;;;;;1999.90;999.90;;;9.70;99.90;;;;;;5099799;28;20036;-82
2024/02/17 04:18:09;;;;;;;1999.90;999.90;;;9.70;99.90;;;;;;5093593;28;20039;-82
2024/02/17 04:20:38;;;;;;;1999.90;999.90;;;9.80;99.90;;;;;;5093994;28;20034;-82
2024/02/17 04:23:08;;;;;;;1999.90;999.90;;;9.70;99.90;;;;;;5110270;28;20394;-82
2024/02/17 04:25:35;;;;;;;1999.90;999.90;;;9.80;99.90;;;;;;5113528;28;20126;-82
2024/02/17 04:28:03;;;;;;;1999.90;999.90;;;9.80;99.90;;;;;;5116721;28;20028;-82
2024/02/17 04:30:29;;;;;;;1999.90;999.90;;;9.80;99.90;;;;;;5107240;28;20038;-83
2024/02/17 04:32:55;;;;;;;1999.90;999.90;;;9.70;99.90;;;;;;5100217;28;20027;-83
2024/02/17 04:35:21;;;;;;;1999.90;999.90;;;9.70;99.90;;;;;;5115956;28;20043;-83
2024/02/17 04:37:47;;;;;;;1999.90;999.90;;;9.50;99.90;;;;;;5096635;28;20111;-83
2024/02/17 04:40:13;;;;;;;1999.90;999.90;;;9.40;99.90;;;;;;5096421;28;20126;-82
2024/02/17 04:42:39;;;;;;;1999.90;999.90;;;9.20;99.90;;;;;;5121069;28;20023;-82
2024/02/17 04:45:05;;;;;;;1999.90;999.90;;;9.10;99.90;;;;;;5113280;28;20043;-83
2024/02/17 04:47:33;;;;;;;1999.90;999.90;;;9.10;99.90;;;;;;5114664;28;20027;-82
2024/02/17 04:49:59;;;;;;;1999.90;999.90;;;9.00;99.90;;;;;;5122805;28;20028;-83
2024/02/17 04:52:25;;;;;;;1999.90;999.90;;;9.00;99.90;;;;;;5114475;28;20077;-82
2024/02/17 04:54:50;;;;;;;1999.90;999.90;;;9.00;99.90;;;;;;5096660;28;20458;-82
2024/02/17 04:57:17;;;;;;;1999.90;999.90;;;9.00;99.90;;;;;;5097820;28;20044;-82
2024/02/17 04:59:43;;;;;;;1999.90;999.90;;;9.10;99.90;;;;;;5095989;28;20031;-83
2024/02/17 05:02:09;;;;;;;1999.90;999.90;;;9.30;99.90;;;;;;5096003;28;20030;-83
2024/02/17 05:04:35;;;;;;;1999.90;999.90;;;9.30;99.90;;;;;;5098772;28;20424;-82
2024/02/17 05:07:00;;;;;;;1999.90;999.90;;;9.50;99.90;;;;;;5104928;28;20394;-82
2024/02/17 05:09:26;;;;;;;1999.90;999.90;;;9.50;99.90;;;;;;5096032;28;20035;-82
2024/02/17 05:11:55;;;;;;;1999.90;999.90;;;9.50;99.90;;;;;;5095976;28;20023;-83
2024/02/17 05:14:24;;;;;;;1999.90;999.90;;;9.40;99.90;;;;;;5121043;28;20031;-82
2024/02/17 05:16:50;;;;;;;1999.90;999.90;;;9.40;99.90;;;;;;5114212;28;20027;-82
2024/02/17 05:19:16;;;;;;;1999.90;999.90;;;9.30;99.90;;;;;;5095735;28;20470;-83
2024/02/17 05:21:42;;;;;;;1999.90;999.90;;;9.30;99.90;;;;;;5097201;28;20074;-82
2024/02/17 05:24:08;;;;;;;1999.90;999.90;;;9.20;99.90;;;;;;5098805;28;20020;-82
2024/02/17 05:26:35;;;;;;;1999.90;999.90;;;9.20;99.90;;;;;;5078041;28;20089;-83
2024/02/17 05:29:06;;;;;;;1999.90;999.90;;;9.20;99.90;;;;;;5096222;28;20042;-82
2024/02/17 05:31:32;;;;;;;1999.90;999.90;;;9.20;99.90;;;;;;5095206;28;20107;-82
2024/02/17 05:33:59;;;;;;;1999.90;999.90;;;9.30;99.90;;;;;;5116840;28;20023;-82
2024/02/17 05:36:28;;;;;;;1999.90;999.90;;;9.20;99.90;;;;;;5120486;28;20398;-83
2024/02/17 05:38:57;;;;;;;1999.90;999.90;;;9.20;99.90;;;;;;5112528;28;20496;-83
2024/02/17 05:41:22;;;;;;;1999.90;999.90;;;9.20;99.90;;;;;;5112572;28;20137;-82
2024/02/17 05:43:48;;;;;;;1999.90;999.90;;;9.20;99.90;;;;;;5099386;28;20508;-82
2024/02/17 05:46:14;;;;;;;1999.90;999.90;;;9.20;99.90;;;;;;5114330;28;20032;-82
2024/02/17 05:48:39;;;;;;;1999.90;999.90;;;9.40;99.90;;;;;;5097073;28;20034;-83
2024/02/17 05:51:05;;;;;;;1999.90;999.90;;;9.40;99.90;;;;;;5113750;28;20086;-82
2024/02/17 05:53:31;;;;;;;1999.90;999.90;;;9.40;99.90;;;;;;5095321;28;20028;-83
2024/02/17 05:55:57;;;;;;;1999.90;999.90;;;9.30;99.90;;;;;;5118157;28;20041;-82
2024/02/17 05:58:22;;;;;;;1999.90;999.90;;;9.20;99.90;;;;;;5099602;28;20130;-82
2024/02/17 06:00:48;;;;;;;1999.90;999.90;;;9.20;99.90;;;;;;5117944;28;20020;-83
2024/02/17 06:03:15;;;;;;;1999.90;999.90;;;9.10;99.90;;;;;;5104372;28;20032;-82
2024/02/17 06:05:41;;;;;;;1999.90;999.90;;;8.90;99.90;;;;;;5116448;28;20456;-83
2024/02/17 06:08:07;;;;;;;1999.90;999.90;;;8.80;99.90;;;;;;5117247;28;20076;-82
2024/02/17 06:10:32;;;;;;;1999.90;999.90;;;8.70;99.90;;;;;;5118735;28;20506;-81
2024/02/17 06:12:58;;;;;;;1999.90;999.90;;;8.60;99.90;;;;;;5116284;28;20024;-82
2024/02/17 06:15:24;;;;;;;1999.90;999.90;;;8.60;99.90;;;;;;5118117;28;20032;-82
2024/02/17 06:21:10;;;;;;;1999.90;999.90;;;8.70;99.90;;;;;;5116298;28;20073;-83
2024/02/17 06:23:23;;;;;;;1999.90;999.90;;;8.80;99.90;;;;;;5110212;28;20038;-82
2024/02/17 06:25:49;;;;;;;1999.90;999.90;;;9.00;99.90;;;;;;5116112;28;20020;-82
2024/02/17 06:28:14;;;;;;;1999.90;999.90;;;9.00;99.90;;;;;;5117371;28;20106;-82
2024/02/17 06:30:40;;;;;;;1999.90;999.90;;;9.10;99.90;;;;;;5129170;28;20008;-83
2024/02/17 06:33:06;;;;;;;1999.90;999.90;;;9.20;99.90;;;;;;5115840;28;20093;-83
2024/02/17 06:35:31;;;;;;;1999.90;999.90;;;9.30;99.90;;;;;;5116002;28;20057;-83
2024/02/17 06:37:57;;;;;;;1999.90;999.90;;;9.30;99.90;;;;;;5124513;28;20012;-83
2024/02/17 06:40:22;;;;;;;1999.90;999.90;;;9.30;99.90;;;;;;5115930;28;20027;-82
2024/02/17 06:42:48;;;;;;;1999.90;999.90;;;9.40;99.90;;;;;;5117135;28;20024;-82
2024/02/17 06:45:16;;;;;;;1999.90;999.90;;;9.40;99.90;;;;;;5119995;28;20018;-83
2024/02/17 06:47:43;;;;;;;1999.90;999.90;;;9.40;99.90;;;;;;5121909;28;20028;-82
2024/02/17 06:50:11;;;;;;;1999.90;999.90;;;9.40;99.90;;;;;;5115273;28;20478;-82
2024/02/17 06:52:37;;;;;;;1999.90;999.90;;;9.30;99.90;;;;;;5115761;28;20030;-83
2024/02/17 06:55:03;;;;;;;1999.90;999.90;;;9.30;99.90;;;;;;5117546;28;20523;-82
2024/02/17 06:57:29;;;;;;;1999.90;999.90;;;9.30;99.90;;;;;;5117039;28;20024;-83
2024/02/17 06:59:54;;;;;;;1999.90;999.90;;;9.30;99.90;;;;;;5114691;28;20023;-83
2024/02/17 07:02:23;;;;;;;1999.90;999.90;;;9.30;99.90;;;;;;5128106;28;20028;-82
2024/02/17 07:04:52;;;;;;;1999.90;999.90;;;9.30;99.90;;;;;;5115211;28;20032;-82
2024/02/17 07:07:19;;;;;;;1999.90;999.90;;;9.20;99.90;;;;;;5098061;28;20020;-83
2024/02/17 07:09:45;;;;;;;1999.90;999.90;;;9.10;99.90;;;;;;5102722;28;20506;-83
2024/02/17 07:12:11;;;;;;;1999.90;999.90;;;9.10;99.90;;;;;;5098254;28;20035;-82
2024/02/17 07:14:40;;;;;;;1999.90;999.90;;;9.20;99.90;;;;;;5116284;28;20402;-83
2024/02/17 07:17:06;;;;;;;1999.90;999.90;;;9.20;99.90;;;;;;5116865;28;20027;-83
2024/02/17 07:19:32;;;;;;;1999.90;999.90;;;9.30;99.90;;;;;;5097819;28;20077;-82
2024/02/17 07:21:58;;;;;;;1999.90;999.90;;;9.20;99.90;;;;;;5091364;28;20020;-82
2024/02/17 07:24:24;;;;;;;1999.90;999.90;;;9.30;99.90;;;;;;5118240;28;20029;-83
2024/02/17 07:26:53;;;;;;;1999.90;999.90;;;9.30;99.90;;;;;;5099967;28;20024;-83
2024/02/17 07:29:19;;;;;;;1999.90;999.90;;;9.40;99.90;;;;;;5096715;28;20055;-83
2024/02/17 07:31:45;;;;;;;1999.90;999.90;;;9.40;99.90;;;;;;5107255;28;20031;-83
2024/02/17 07:34:11;;;;;;;1999.90;999.90;;;9.40;99.90;;;;;;5080237;28;20566;-83
2024/02/17 07:36:41;;;;;;;1999.90;999.90;;;9.60;99.90;;;;;;5077331;28;20119;-82
2024/02/17 07:39:08;;;;;;;1999.90;999.90;;;9.60;99.90;;;;;;5084526;28;20075;-83
2024/02/17 07:41:33;;;;;;;1999.90;999.90;;;9.80;99.90;;;;;;5096028;28;20497;-83
2024/02/17 07:43:59;;;;;;;1999.90;999.90;;;9.90;99.90;;;;;;5077232;28;20111;-83
2024/02/17 07:46:25;;;;;;;1999.90;999.90;;;9.90;99.90;;;;;;5078035;28;20424;-83
2024/02/17 07:48:51;;;;;;;1999.90;999.90;;;10.10;99.90;;;;;;5078589;28;20120;-83
2024/02/17 07:51:17;;;;;;;1999.90;999.90;;;10.10;99.90;;;;;;5076789;28;20513;-82
2024/02/17 07:53:42;;;;;;;1999.90;999.90;;;10.20;99.90;;;;;;5078887;28;20418;-82
2024/02/17 07:56:09;;;;;;;1999.90;999.90;;;10.10;99.90;;;;;;5076905;28;20490;-83
2024/02/17 07:58:35;;;;;;;1999.90;999.90;;;10.20;99.90;;;;;;5097030;28;20023;-83
2024/02/17 08:01:00;;;;;;;1999.90;999.90;;;10.30;99.90;;;;;;5101310;28;20037;-82
2024/02/17 08:03:27;;;;;;;1999.90;999.90;;;10.40;99.90;;;;;;5115380;28;20084;-83
2024/02/17 08:05:53;;;;;;;1999.90;999.90;;;10.60;99.90;;;;;;5096868;28;20054;-83
2024/02/17 08:08:19;;;;;;;1999.90;999.90;;;10.70;99.90;;;;;;5115956;28;20027;-83
2024/02/17 08:10:45;;;;;;;1999.90;999.90;;;10.90;99.90;;;;;;5124941;28;20039;-83
2024/02/17 08:13:12;;;;;;;1999.90;999.90;;;11.10;99.90;;;;;;5115940;28;20491;-82
2024/02/17 08:15:38;;;;;;;1999.90;999.90;;;11.40;99.90;;;;;;5096912;28;20023;-83
2024/02/17 08:18:04;;;;;;;1999.90;999.90;;;11.80;99.90;;;;;;5105687;28;20038;-83
2024/02/17 08:20:30;;;;;;;1999.90;999.90;;;12.50;99.90;;;;;;5115425;28;20027;-83
2024/02/17 08:22:56;;;;;;;1999.90;999.90;;;12.90;99.90;;;;;;5114722;28;20027;-82
2024/02/17 08:25:21;;;;;;;1999.90;999.90;;;13.30;99.90;;;;;;5106156;28;20026;-84
2024/02/17 08:27:47;;;;;;;1999.90;999.90;;;13.70;99.90;;;;;;5102222;28;20050;-83
2024/02/17 08:30:13;;;;;;;1999.90;999.90;;;14.00;99.90;;;;;;5096492;28;20024;-83
2024/02/17 08:32:38;;;;;;;1999.90;999.90;;;14.10;99.90;;;;;;5092137;28;20016;-83
2024/02/17 08:35:04;;;;;;;1999.90;999.90;;;14.20;99.90;;;;;;5077690;28;20028;-82
2024/02/17 08:37:30;;;;;;;1999.90;999.90;;;13.50;99.90;;;;;;5094391;28;20024;-83
2024/02/17 08:39:56;;;;;;;1999.90;999.90;;;12.80;99.90;;;;;;5094412;28;20103;-82
2024/02/17 08:42:22;;;;;;;1999.90;999.90;;;12.40;99.90;;;;;;5104186;28;20559;-82
2024/02/17 08:44:52;;;;;;;1999.90;999.90;;;12.30;99.90;;;;;;5096302;28;20395;-83
2024/02/17 08:47:20;;;;;;;1999.90;999.90;;;12.40;99.90;;;;;;5096423;28;20118;-83
2024/02/17 08:49:45;;;;;;;1999.90;999.90;;;12.50;99.90;;;;;;5117501;28;20004;-83
2024/02/17 08:52:11;;;;;;;1999.90;999.90;;;12.50;99.90;;;;;;5096034;28;20038;-81
2024/02/17 08:54:38;;;;;;;1999.90;999.90;;;13.80;99.90;;;;;;5114535;28;20555;-81
2024/02/17 08:57:03;;;;;;;1999.90;999.90;;;14.80;99.90;;;;;;5101691;28;20032;-80
2024/02/17 08:59:29;;;;;;;1999.90;999.90;;;14.50;99.90;;;;;;5114219;28;20436;-80
2024/02/17 09:01:55;;;;;;;1999.90;999.90;;;13.00;99.90;;;;;;5114332;28;20372;-80
2024/02/17 09:04:20;;;;;;;1999.90;999.90;;;12.20;99.90;;;;;;5097675;28;20038;-80
2024/02/17 09:06:46;;;;;;;1999.90;999.90;;;12.20;99.90;;;;;;5095657;28;20035;-80
2024/02/17 09:09:12;;;;;;;1999.90;999.90;;;12.20;99.90;;;;;;5114302;28;20031;-80
2024/02/17 09:11:37;;;;;;;1999.90;999.90;;;12.10;99.90;;;;;;5107665;28;20016;-80
2024/02/17 09:14:03;;;;;;;1999.90;999.90;;;12.10;99.90;;;;;;5113883;28;20555;-80
2024/02/17 09:16:29;;;;;;;1999.90;999.90;;;12.20;99.90;;;;;;5114258;28;20389;-80
2024/02/17 09:18:54;;;;;;;1999.90;999.90;;;12.00;99.90;;;;;;5098269;28;20411;-80
2024/02/17 09:21:20;;;;;;;1999.90;999.90;;;11.80;99.90;;;;;;5113934;28;20020;-80
2024/02/17 09:23:46;;;;;;;1999.90;999.90;;;11.80;99.90;;;;;;5095754;28;20547;-81
2024/02/17 09:26:11;;;;;;;1999.90;999.90;;;11.90;99.90;;;;;;5110540;28;20028;-79
2024/02/17 09:28:37;;;;;;;1999.90;999.90;;;11.90;99.90;;;;;;5117689;28;20107;-80
2024/02/17 09:31:03;;;;;;;1999.90;999.90;;;12.10;99.90;;;;;;5113840;28;20028;-80
2024/02/17 09:33:29;;;;;;;1999.90;999.90;;;12.40;99.90;;;;;;5087048;28;20509;-80
2024/02/17 09:35:55;;;;;;;1999.90;999.90;;;12.60;99.90;;;;;;5079424;28;20032;-80
2024/02/17 09:38:22;;;;;;;1999.90;999.90;;;12.40;99.90;;;;;;5075455;28;20476;-80
2024/02/17 09:40:47;;;;;;;1999.90;999.90;;;12.70;99.90;;;;;;5077520;28;20509;-80
2024/02/17 09:43:13;;;;;;;1999.90;999.90;;;12.70;99.90;;;;;;5093422;28;20028;-80
2024/02/17 09:45:40;;;;;;;1999.90;999.90;;;12.50;99.90;;;;;;5075150;28;20028;-81
2024/02/17 09:48:06;;;;;;;1999.90;999.90;;;12.60;99.90;;;;;;5084583;28;20012;-80
2024/02/17 09:50:34;;;;;;;1999.90;999.90;;;12.60;99.90;;;;;;5095390;28;20024;-80
2024/02/17 09:53:01;;;;;;;1999.90;999.90;;;12.70;99.90;;;;;;5095544;28;20037;-80
2024/02/17 09:55:30;;;;;;;1999.90;999.90;;;12.70;99.90;;;;;;5122877;28;20067;-80
2024/02/17 09:57:56;;;;;;;1999.90;999.90;;;12.40;99.90;;;;;;5095238;28;20051;-80
2024/02/17 10:00:24;;;;;;;1999.90;999.90;;;12.60;99.90;;;;;;5113741;28;20031;-80
2024/02/17 10:02:51;;;;;;;1999.90;999.90;;;12.70;99.90;;;;;;5097432;28;20031;-81
2024/02/17 10:05:21;;;;;;;1999.90;999.90;;;12.70;99.90;;;;;;5113580;28;20494;-80
2024/02/17 10:07:53;;;;;;;1999.90;999.90;;;12.50;99.90;;;;;;5112665;28;20031;-80
2024/02/17 10:10:21;;;;;;;1999.90;999.90;;;12.50;99.90;;;;;;5118349;28;20031;-80
2024/02/17 10:12:54;;;;;;;1999.90;999.90;;;12.60;99.90;;;;;;5113256;28;20039;-79
2024/02/17 10:15:21;;;;;;;1999.90;999.90;;;12.60;99.90;;;;;;5113399;28;20154;-80
2024/02/17 10:17:52;;;;;;;1999.90;999.90;;;12.50;99.90;;;;;;5128293;28;20055;-80
2024/02/17 10:20:18;;;;;;;1999.90;999.90;;;12.50;99.90;;;;;;5102667;28;20478;-80
2024/02/17 10:22:45;;;;;;;1999.90;999.90;;;12.60;99.90;;;;;;5094161;28;20028;-80
2024/02/17 10:25:11;;;;;;;1999.90;999.90;;;12.70;99.90;;;;;;5097013;28;20032;-80
2024/02/17 10:27:39;;;;;;;1999.90;999.90;;;12.90;99.90;;;;;;5106126;28;20080;-80
2024/02/17 10:30:12;;;;;;;1999.90;999.90;;;12.90;99.90;;;;;;5115902;28;20400;-80
2024/02/17 10:32:38;;;;;;;;;;;12.90;99.90;;;;;;5136375;28;20367;-80
2024/02/17 10:35:05;;;;;;;1999.90;999.90;;;12.80;99.90;;;;;;5115372;28;19911;-80
2024/02/17 10:37:32;;;;;;;1999.90;999.90;;;12.70;99.90;;;;;;5115149;28;20020;-80
2024/02/17 10:40:05;;;;;;;1999.90;999.90;;;12.90;99.90;;;;;;5119779;28;20087;-80
2024/02/17 10:42:31;;;;;;;;;;;13.10;99.90;;;;;;5120168;27;20034;-79
2024/02/17 10:45:00;;;;;;;1999.90;999.90;;;13.20;99.90;;;;;;5118974;27;20357;-79
2024/02/17 10:47:28;;;;;;;1999.90;999.90;;;13.30;99.90;;;;;;5141283;27;20042;-79
2024/02/17 10:50:03;;;;;;;1999.90;999.90;;;13.30;99.90;;;;;;5121500;27;20038;-80
2024/02/17 10:52:33;;;;;;;1999.90;999.90;;;13.40;99.90;;;;;;5118936;27;20490;-80
2024/02/17 10:55:06;;;;;;;1999.90;999.90;;;13.40;99.90;;;;;;5120247;27;20027;-81
2024/02/17 10:57:56;;;;;;;1999.90;999.90;;;13.60;99.90;;;;;;5118791;27;20030;-80
2024/02/17 11:00:23;;;;;;;1999.90;999.90;;;13.70;99.90;;;;;;5137702;27;20023;-80
2024/02/17 11:02:53;;;;;;;1999.90;999.90;;;13.90;99.90;;;;;;5138646;27;20020;-80
2024/02/17 11:05:20;;;;;;;1999.90;999.90;;;13.80;99.90;;;;;;5137020;27;20440;-81
2024/02/17 11:07:47;;;;;;;1999.90;999.90;;;13.80;99.90;;;;;;5118579;27;20027;-80
2024/02/17 11:10:13;;;;;;;1999.90;999.90;;;14.00;99.90;;;;;;5130365;27;20034;-79
2024/02/17 11:12:41;;;;;;;1999.90;999.90;;;14.20;99.90;;;;;;5118634;27;20033;-80
2024/02/17 11:15:11;;;;;;;1999.90;999.90;;;14.10;99.90;;;;;;5137041;27;20039;-79
2024/02/17 11:17:50;;;;;;;1999.90;999.90;;;14.10;99.90;;;;;;5121776;27;20420;-80
2024/02/17 11:20:17;;;;;;;1999.90;999.90;;;14.10;99.90;;;;;;5131215;27;20031;-79
2024/02/17 11:22:47;;;;;;;1999.90;999.90;;;14.10;99.90;;;;;;5104667;28;20027;-79
2024/02/17 11:25:23;;;;;;;1999.90;999.90;;;14.10;99.90;;;;;;5097845;28;20024;-79
2024/02/17 11:27:48;;;;;;;1999.90;999.90;;;14.30;99.90;;;;;;5112766;28;20027;-83
2024/02/17 11:30:14;;;;;;;1999.90;999.90;;;14.40;99.90;;;;;;5116156;28;20027;-82
2024/02/17 11:32:43;;;;;;;1999.90;999.90;;;14.30;99.90;;;;;;5093132;28;20394;-82
2024/02/17 11:35:11;;;;;;;1999.90;999.90;;;14.30;99.90;;;;;;5078308;28;20054;-81
2024/02/17 11:37:39;;;;;;;1999.90;999.90;;;14.20;99.90;;;;;;5095271;28;20033;-81
2024/02/17 11:40:07;;;;;;;1999.90;999.90;;;14.10;99.90;;;;;;5077598;28;20031;-82
2024/02/17 11:42:32;;;;;;;1999.90;999.90;;;14.30;99.90;;;;;;5084903;28;20567;-81
2024/02/17 11:45:00;;;;;;;1999.90;999.90;;;14.50;99.90;;;;;;5116184;28;20020;-81
2024/02/17 11:47:29;;;;;;;1999.90;999.90;;;14.40;99.90;;;;;;5115971;28;20020;-82
2024/02/17 11:50:11;;;;;;;1999.90;999.90;;;14.30;99.90;;;;;;5099211;28;20035;-82
2024/02/17 11:52:43;;;;;;;1999.90;999.90;;;14.40;99.90;;;;;;5096275;28;20034;-82
2024/02/17 11:55:12;;;;;;;1999.90;999.90;;;14.60;99.90;;;;;;5099205;28;20054;-83
2024/02/17 11:57:42;;;;;;;1999.90;999.90;;;14.80;99.90;;;;;;5118176;28;20073;-82
2024/02/17 12:00:15;;;;;;;1999.90;999.90;;;14.60;99.90;;;;;;5115606;28;20028;-82
2024/02/17 12:02:43;;;;;;;1999.90;999.90;;;14.60;99.90;;;;;;5099141;28;20043;-80
2024/02/17 12:05:09;;;;;;;1999.90;999.90;;;14.50;99.90;;;;;;5115474;28;20549;-81